createdAt,value
2022-11-30T00:00:35.856Z,1005.96
2022-11-30T00:01:35.868Z,1005.90
2022-11-30T00:02:35.971Z,1005.95
2022-11-30T00:03:35.821Z,1005.91
2022-11-30T00:04:35.805Z,1005.91
2022-11-30T00:05:35.804Z,1005.91
2022-11-30T00:06:35.794Z,1005.93
2022-11-30T00:07:35.824Z,1005.90
2022-11-30T00:08:35.755Z,1005.89
2022-11-30T00:09:35.745Z,1005.91
2022-11-30T00:10:35.730Z,1005.87
2022-11-30T00:11:35.732Z,1005.87
2022-11-30T00:12:35.732Z,1005.87
2022-11-30T00:13:35.693Z,1005.87
2022-11-30T00:14:35.675Z,1005.85
2022-11-30T00:15:35.676Z,1005.87
2022-11-30T00:16:35.721Z,1005.87
2022-11-30T00:17:35.639Z,1005.89
2022-11-30T00:18:35.629Z,1005.91
2022-11-30T00:19:35.618Z,1005.90
2022-11-30T00:20:35.600Z,1005.89
2022-11-30T00:21:35.607Z,1005.82
2022-11-30T00:22:35.573Z,1005.88
2022-11-30T00:23:35.568Z,1005.89
2022-11-30T00:24:35.549Z,1005.93
2022-11-30T00:25:35.536Z,1005.83
2022-11-30T00:26:35.537Z,1005.88
2022-11-30T00:27:35.510Z,1005.91
2022-11-30T00:28:35.515Z,1005.87
2022-11-30T00:29:35.488Z,1005.92
2022-11-30T00:30:35.493Z,1005.90
2022-11-30T00:31:35.476Z,1005.87
2022-11-30T00:32:35.442Z,1005.86
2022-11-30T00:33:35.431Z,1005.83
2022-11-30T00:34:35.428Z,1005.86
2022-11-30T00:35:35.408Z,1005.83
2022-11-30T00:36:35.415Z,1005.81
2022-11-30T00:37:35.381Z,1005.82
2022-11-30T00:38:35.369Z,1005.79
2022-11-30T00:39:35.853Z,1005.84
2022-11-30T00:40:35.343Z,1005.80
2022-11-30T00:41:35.359Z,1005.79
2022-11-30T00:42:35.316Z,1005.82
2022-11-30T00:43:35.303Z,1005.84
2022-11-30T00:44:35.312Z,1005.85
2022-11-30T00:45:35.277Z,1005.92
2022-11-30T00:46:35.307Z,1005.88
2022-11-30T00:47:35.266Z,1005.89
2022-11-30T00:48:35.237Z,1005.89
2022-11-30T00:49:35.222Z,1005.89
2022-11-30T00:50:35.206Z,1005.86
2022-11-30T00:51:35.197Z,1005.83
2022-11-30T00:52:35.199Z,1005.88
2022-11-30T00:53:35.176Z,1005.88
2022-11-30T00:54:35.156Z,1005.89
2022-11-30T00:55:35.147Z,1005.87
2022-11-30T00:56:35.133Z,1005.91
2022-11-30T00:57:35.145Z,1005.90
2022-11-30T00:58:35.131Z,1005.89
2022-11-30T00:59:35.095Z,1005.88
2022-11-30T01:00:35.102Z,1005.89
2022-11-30T01:01:35.096Z,1005.90
2022-11-30T01:02:35.137Z,1005.86
2022-11-30T01:03:35.056Z,1005.85
2022-11-30T01:04:35.028Z,1005.84
2022-11-30T01:05:35.017Z,1005.80
2022-11-30T01:06:35.004Z,1005.87
2022-11-30T01:07:35.078Z,1005.84
2022-11-30T01:08:34.972Z,1005.90
2022-11-30T01:09:34.978Z,1005.84
2022-11-30T01:10:34.955Z,1005.84
2022-11-30T01:11:34.939Z,1005.88
2022-11-30T01:12:34.970Z,1005.89
2022-11-30T01:13:34.918Z,1005.91
2022-11-30T01:14:34.904Z,1005.93
2022-11-30T01:15:34.909Z,1005.88
2022-11-30T01:16:34.889Z,1005.83
2022-11-30T01:17:34.883Z,1005.84
2022-11-30T01:18:34.845Z,1005.83
2022-11-30T01:19:34.835Z,1005.85
2022-11-30T01:20:34.828Z,1005.82
2022-11-30T01:21:34.809Z,1005.72
2022-11-30T01:22:34.810Z,1005.80
2022-11-30T01:23:34.784Z,1005.79
2022-11-30T01:24:34.772Z,1005.79
2022-11-30T01:25:34.756Z,1005.79
2022-11-30T01:26:34.744Z,1005.80
2022-11-30T01:27:34.751Z,1005.78
2022-11-30T01:28:34.717Z,1005.78
2022-11-30T01:29:34.709Z,1005.79
2022-11-30T01:30:34.749Z,1005.79
2022-11-30T01:31:34.683Z,1005.83
2022-11-30T01:32:34.706Z,1005.83
2022-11-30T01:33:34.655Z,1005.84
2022-11-30T01:34:34.653Z,1005.80
2022-11-30T01:35:34.632Z,1005.85
2022-11-30T01:36:34.613Z,1005.87
2022-11-30T01:37:34.617Z,1005.87
2022-11-30T01:38:34.589Z,1005.93
2022-11-30T01:39:34.574Z,1005.93
2022-11-30T01:40:34.562Z,1005.92
2022-11-30T01:41:34.557Z,1005.90
2022-11-30T01:42:34.556Z,1005.94
2022-11-30T01:43:34.529Z,1005.95
2022-11-30T01:44:34.510Z,1005.96
2022-11-30T01:45:34.506Z,1005.98
2022-11-30T01:46:34.568Z,1005.92
2022-11-30T01:47:34.494Z,1005.96
2022-11-30T01:48:34.483Z,1005.95
2022-11-30T01:49:34.448Z,1006.00
2022-11-30T01:50:34.439Z,1005.99
2022-11-30T01:51:34.432Z,1006.01
2022-11-30T01:52:34.421Z,1006.01
2022-11-30T01:53:34.398Z,1005.99
2022-11-30T01:54:34.379Z,1005.94
2022-11-30T01:55:34.368Z,1005.97
2022-11-30T01:56:34.357Z,1005.95
2022-11-30T01:57:34.366Z,1005.91
2022-11-30T01:58:34.332Z,1005.94
2022-11-30T01:59:34.318Z,1005.94
2022-11-30T02:00:34.306Z,1005.93
2022-11-30T02:01:34.351Z,1005.96
2022-11-30T02:02:34.336Z,1005.99
2022-11-30T02:03:34.264Z,1006.03
2022-11-30T02:04:34.271Z,1006.05
2022-11-30T02:05:34.244Z,1006.03
2022-11-30T02:06:34.226Z,1006.04
2022-11-30T02:07:34.319Z,1006.01
2022-11-30T02:08:34.354Z,1006.04
2022-11-30T02:09:34.187Z,1006.01
2022-11-30T02:10:34.175Z,1006.04
2022-11-30T02:11:34.159Z,1006.04
2022-11-30T02:12:34.143Z,1006.06
2022-11-30T02:13:34.146Z,1006.06
2022-11-30T02:14:34.208Z,1006.10
2022-11-30T02:15:34.145Z,1006.09
2022-11-30T02:16:34.095Z,1006.09
2022-11-30T02:17:34.082Z,1006.09
2022-11-30T02:18:34.085Z,1006.10
2022-11-30T02:19:34.061Z,1006.10
2022-11-30T02:20:34.063Z,1006.09
2022-11-30T02:21:34.034Z,1006.12
2022-11-30T02:22:34.018Z,1006.06
2022-11-30T02:23:39.474Z,1006.09
2022-11-30T02:24:33.990Z,1006.08
2022-11-30T02:25:33.978Z,1006.04
2022-11-30T02:26:33.968Z,1006.07
2022-11-30T02:27:33.966Z,1006.09
2022-11-30T02:28:33.955Z,1006.04
2022-11-30T02:29:33.926Z,1006.10
2022-11-30T02:30:33.915Z,1006.05
2022-11-30T02:31:33.901Z,1006.10
2022-11-30T02:32:33.888Z,1006.09
2022-11-30T02:33:33.888Z,1006.12
2022-11-30T02:34:33.860Z,1006.09
2022-11-30T02:35:33.847Z,1006.09
2022-11-30T02:36:33.857Z,1006.09
2022-11-30T02:37:33.825Z,1006.11
2022-11-30T02:38:33.825Z,1006.05
2022-11-30T02:39:33.796Z,1006.13
2022-11-30T02:40:33.783Z,1006.09
2022-11-30T02:41:37.885Z,1006.10
2022-11-30T02:42:33.758Z,1006.09
2022-11-30T02:43:33.759Z,1006.06
2022-11-30T02:44:33.734Z,1006.08
2022-11-30T02:45:33.719Z,1006.03
2022-11-30T02:46:33.799Z,1006.11
2022-11-30T02:47:33.693Z,1006.10
2022-11-30T02:48:33.699Z,1006.14
2022-11-30T02:49:33.665Z,1006.09
2022-11-30T02:50:33.654Z,1006.14
2022-11-30T02:51:33.639Z,1006.08
2022-11-30T02:52:33.644Z,1006.06
2022-11-30T02:53:33.633Z,1006.12
2022-11-30T02:54:33.604Z,1006.12
2022-11-30T02:55:33.585Z,1006.06
2022-11-30T02:56:33.574Z,1006.11
2022-11-30T02:57:33.559Z,1006.10
2022-11-30T02:58:33.567Z,1006.07
2022-11-30T02:59:33.531Z,1006.11
2022-11-30T03:00:33.524Z,1006.10
2022-11-30T03:01:33.570Z,1006.12
2022-11-30T03:02:33.536Z,1006.06
2022-11-30T03:03:33.482Z,1006.08
2022-11-30T03:04:33.488Z,1006.09
2022-11-30T03:05:33.455Z,1006.07
2022-11-30T03:06:33.447Z,1006.14
2022-11-30T03:07:33.476Z,1006.10
2022-11-30T03:08:33.442Z,1006.07
2022-11-30T03:09:33.428Z,1006.15
2022-11-30T03:10:33.395Z,1006.14
2022-11-30T03:11:33.383Z,1006.16
2022-11-30T03:12:33.370Z,1006.16
2022-11-30T03:13:33.351Z,1006.16
2022-11-30T03:14:33.356Z,1006.20
2022-11-30T03:15:33.338Z,1006.18
2022-11-30T03:16:33.314Z,1006.18
2022-11-30T03:17:33.297Z,1006.16
2022-11-30T03:18:33.288Z,1006.19
2022-11-30T03:19:33.289Z,1006.23
2022-11-30T03:20:33.262Z,1006.24
2022-11-30T03:21:33.248Z,1006.22
2022-11-30T03:22:33.236Z,1006.21
2022-11-30T03:23:33.222Z,1006.25
2022-11-30T03:24:33.244Z,1006.23
2022-11-30T03:25:33.199Z,1006.24
2022-11-30T03:26:33.182Z,1006.28
2022-11-30T03:27:33.177Z,1006.28
2022-11-30T03:28:33.161Z,1006.24
2022-11-30T03:29:33.168Z,1006.22
2022-11-30T03:30:33.139Z,1006.21
2022-11-30T03:31:33.153Z,1006.18
2022-11-30T03:32:33.108Z,1006.23
2022-11-30T03:33:33.092Z,1006.18
2022-11-30T03:34:33.096Z,1006.24
2022-11-30T03:35:33.072Z,1006.23
2022-11-30T03:36:33.060Z,1006.20
2022-11-30T03:37:33.040Z,1006.18
2022-11-30T03:38:33.036Z,1006.16
2022-11-30T03:39:33.053Z,1006.22
2022-11-30T03:40:33.031Z,1006.21
2022-11-30T03:41:32.988Z,1006.17
2022-11-30T03:42:32.977Z,1006.24
2022-11-30T03:43:32.973Z,1006.27
2022-11-30T03:44:32.974Z,1006.29
2022-11-30T03:45:32.939Z,1006.29
2022-11-30T03:46:33.019Z,1006.28
2022-11-30T03:47:32.911Z,1006.30
2022-11-30T03:48:32.901Z,1006.37
2022-11-30T03:49:32.929Z,1006.27
2022-11-30T03:50:32.883Z,1006.29
2022-11-30T03:51:32.858Z,1006.31
2022-11-30T03:52:32.845Z,1006.33
2022-11-30T03:53:32.831Z,1006.32
2022-11-30T03:54:32.847Z,1006.31
2022-11-30T03:55:32.807Z,1006.32
2022-11-30T03:56:32.813Z,1006.30
2022-11-30T03:57:32.782Z,1006.30
2022-11-30T03:58:32.768Z,1006.33
2022-11-30T03:59:32.755Z,1006.35
2022-11-30T04:00:32.760Z,1006.37
2022-11-30T04:01:32.779Z,1006.31
2022-11-30T04:02:32.767Z,1006.32
2022-11-30T04:03:32.701Z,1006.35
2022-11-30T04:04:32.690Z,1006.37
2022-11-30T04:05:32.693Z,1006.37
2022-11-30T04:06:32.663Z,1006.33
2022-11-30T04:07:32.703Z,1006.34
2022-11-30T04:08:32.638Z,1006.31
2022-11-30T04:09:32.625Z,1006.31
2022-11-30T04:10:32.628Z,1006.35
2022-11-30T04:11:32.596Z,1006.31
2022-11-30T04:12:32.610Z,1006.31
2022-11-30T04:13:32.572Z,1006.32
2022-11-30T04:14:32.566Z,1006.34
2022-11-30T04:15:32.577Z,1006.34
2022-11-30T04:16:32.559Z,1006.34
2022-11-30T04:17:32.522Z,1006.37
2022-11-30T04:18:32.507Z,1006.33
2022-11-30T04:19:32.497Z,1006.34
2022-11-30T04:20:37.331Z,1006.34
2022-11-30T04:21:32.478Z,1006.31
2022-11-30T04:22:32.456Z,1006.32
2022-11-30T04:23:32.438Z,1006.26
2022-11-30T04:24:32.430Z,1006.29
2022-11-30T04:25:32.436Z,1006.28
2022-11-30T04:26:32.405Z,1006.33
2022-11-30T04:27:32.390Z,1006.33
2022-11-30T04:28:32.402Z,1006.33
2022-11-30T04:29:32.365Z,1006.31
2022-11-30T04:30:32.371Z,1006.34
2022-11-30T04:31:32.385Z,1006.35
2022-11-30T04:32:32.324Z,1006.35
2022-11-30T04:33:32.309Z,1006.40
2022-11-30T04:34:32.298Z,1006.36
2022-11-30T04:35:32.303Z,1006.38
2022-11-30T04:36:32.276Z,1006.33
2022-11-30T04:37:32.259Z,1006.33
2022-11-30T04:38:32.244Z,1006.29
2022-11-30T04:39:32.256Z,1006.32
2022-11-30T04:40:32.240Z,1006.28
2022-11-30T04:41:32.208Z,1006.30
2022-11-30T04:42:32.198Z,1006.27
2022-11-30T04:43:32.180Z,1006.29
2022-11-30T04:44:32.192Z,1006.27
2022-11-30T04:45:35.321Z,1006.33
2022-11-30T04:46:32.227Z,1006.29
2022-11-30T04:47:32.129Z,1006.25
2022-11-30T04:48:32.116Z,1006.26
2022-11-30T04:49:32.105Z,1006.28
2022-11-30T04:50:32.123Z,1006.29
2022-11-30T04:51:32.077Z,1006.36
2022-11-30T04:52:32.070Z,1006.34
2022-11-30T04:53:32.050Z,1006.26
2022-11-30T04:54:32.038Z,1006.35
2022-11-30T04:55:32.032Z,1006.32
2022-11-30T04:56:32.028Z,1006.30
2022-11-30T04:57:31.998Z,1006.35
2022-11-30T04:58:31.989Z,1006.31
2022-11-30T04:59:31.971Z,1006.28
2022-11-30T05:00:31.988Z,1006.29
2022-11-30T05:01:32.047Z,1006.28
2022-11-30T05:02:31.941Z,1006.28
2022-11-30T05:03:31.920Z,1006.32
2022-11-30T05:04:32.012Z,1006.31
2022-11-30T05:05:31.893Z,1006.28
2022-11-30T05:06:31.902Z,1006.37
2022-11-30T05:07:31.934Z,1006.33
2022-11-30T05:08:31.858Z,1006.38
2022-11-30T05:09:31.839Z,1006.36
2022-11-30T05:10:31.840Z,1006.38
2022-11-30T05:11:31.833Z,1006.43
2022-11-30T05:12:31.831Z,1006.42
2022-11-30T05:13:31.791Z,1006.42
2022-11-30T05:14:31.779Z,1006.41
2022-11-30T05:15:31.762Z,1006.38
2022-11-30T05:16:31.862Z,1006.48
2022-11-30T05:17:31.739Z,1006.40
2022-11-30T05:18:31.757Z,1006.33
2022-11-30T05:19:31.718Z,1006.40
2022-11-30T05:20:31.702Z,1006.38
2022-11-30T05:21:31.702Z,1006.38
2022-11-30T05:22:31.674Z,1006.41
2022-11-30T05:23:31.660Z,1006.43
2022-11-30T05:24:31.648Z,1006.40
2022-11-30T05:25:31.643Z,1006.42
2022-11-30T05:26:31.641Z,1006.43
2022-11-30T05:27:31.609Z,1006.49
2022-11-30T05:28:31.596Z,1006.47
2022-11-30T05:29:31.581Z,1006.48
2022-11-30T05:30:31.575Z,1006.54
2022-11-30T05:31:31.631Z,1006.52
2022-11-30T05:32:31.562Z,1006.52
2022-11-30T05:33:31.532Z,1006.56
2022-11-30T05:34:41.192Z,1006.55
2022-11-30T05:35:31.506Z,1006.58
2022-11-30T05:36:31.509Z,1006.57
2022-11-30T05:37:31.481Z,1006.60
2022-11-30T05:38:31.469Z,1006.54
2022-11-30T05:39:31.452Z,1006.54
2022-11-30T05:40:31.439Z,1006.58
2022-11-30T05:41:31.442Z,1006.61
2022-11-30T05:42:31.416Z,1006.61
2022-11-30T05:43:31.398Z,1006.59
2022-11-30T05:44:31.388Z,1006.56
2022-11-30T05:45:31.374Z,1006.61
2022-11-30T05:46:31.452Z,1006.61
2022-11-30T05:47:31.348Z,1006.59
2022-11-30T05:48:31.360Z,1006.58
2022-11-30T05:49:31.322Z,1006.63
2022-11-30T05:50:31.309Z,1006.60
2022-11-30T05:51:31.308Z,1006.58
2022-11-30T05:52:31.285Z,1006.57
2022-11-30T05:53:31.274Z,1006.64
2022-11-30T05:54:31.264Z,1006.61
2022-11-30T05:55:31.243Z,1006.64
2022-11-30T05:56:31.246Z,1006.62
2022-11-30T05:57:31.216Z,1006.66
2022-11-30T05:58:31.216Z,1006.62
2022-11-30T05:59:31.194Z,1006.62
2022-11-30T06:00:31.183Z,1006.65
2022-11-30T06:01:31.196Z,1006.62
2022-11-30T06:02:31.254Z,1006.62
2022-11-30T06:03:31.178Z,1006.62
2022-11-30T06:04:31.145Z,1006.60
2022-11-30T06:05:31.117Z,1006.63
2022-11-30T06:06:31.102Z,1006.62
2022-11-30T06:07:31.127Z,1006.62
2022-11-30T06:08:31.078Z,1006.66
2022-11-30T06:09:31.061Z,1006.63
2022-11-30T06:10:31.054Z,1006.65
2022-11-30T06:11:31.044Z,1006.65
2022-11-30T06:12:31.042Z,1006.63
2022-11-30T06:13:31.013Z,1006.66
2022-11-30T06:14:30.999Z,1006.67
2022-11-30T06:15:30.985Z,1006.70
2022-11-30T06:16:31.028Z,1006.72
2022-11-30T06:17:30.974Z,1006.69
2022-11-30T06:18:30.949Z,1006.68
2022-11-30T06:19:30.936Z,1006.71
2022-11-30T06:20:30.971Z,1006.70
2022-11-30T06:21:30.920Z,1006.73
2022-11-30T06:22:30.910Z,1006.70
2022-11-30T06:23:30.883Z,1006.73
2022-11-30T06:24:30.873Z,1006.69
2022-11-30T06:25:30.861Z,1006.80
2022-11-30T06:26:30.845Z,1006.72
2022-11-30T06:27:30.849Z,1006.70
2022-11-30T06:28:30.819Z,1006.77
2022-11-30T06:29:30.806Z,1006.73
2022-11-30T06:30:30.805Z,1006.73
2022-11-30T06:31:30.804Z,1006.78
2022-11-30T06:32:30.782Z,1006.78
2022-11-30T06:33:30.754Z,1006.72
2022-11-30T06:34:30.748Z,1006.76
2022-11-30T06:35:30.728Z,1006.78
2022-11-30T06:36:35.820Z,1006.71
2022-11-30T06:37:31.719Z,1006.76
2022-11-30T06:38:30.689Z,1006.77
2022-11-30T06:39:57.708Z,1006.74
2022-11-30T06:40:31.673Z,1006.76
2022-11-30T06:41:30.650Z,1006.82
2022-11-30T06:42:30.654Z,1006.76
2022-11-30T06:43:30.631Z,1006.82
2022-11-30T06:44:30.617Z,1006.76
2022-11-30T06:45:30.612Z,1006.78
2022-11-30T06:46:30.588Z,1006.80
2022-11-30T06:47:30.591Z,1006.84
2022-11-30T06:48:30.565Z,1006.81
2022-11-30T06:49:30.553Z,1006.78
2022-11-30T06:50:30.534Z,1006.83
2022-11-30T06:51:30.534Z,1006.83
2022-11-30T06:52:30.555Z,1006.81
2022-11-30T06:53:30.500Z,1006.82
2022-11-30T06:54:30.484Z,1006.82
2022-11-30T06:55:30.471Z,1006.80
2022-11-30T06:56:30.458Z,1006.80
2022-11-30T06:57:30.460Z,1006.83
2022-11-30T06:58:30.437Z,1006.78
2022-11-30T06:59:30.422Z,1006.84
2022-11-30T07:00:30.410Z,1006.84
2022-11-30T07:01:30.544Z,1006.84
2022-11-30T07:02:30.398Z,1006.89
2022-11-30T07:03:30.369Z,1006.87
2022-11-30T07:04:30.436Z,1006.85
2022-11-30T07:05:30.349Z,1006.80
2022-11-30T07:06:30.327Z,1006.88
2022-11-30T07:07:30.375Z,1006.86
2022-11-30T07:08:30.324Z,1006.86
2022-11-30T07:09:30.303Z,1006.87
2022-11-30T07:10:30.280Z,1006.94
2022-11-30T07:11:30.264Z,1006.89
2022-11-30T07:12:30.265Z,1006.89
2022-11-30T07:13:30.259Z,1006.87
2022-11-30T07:14:30.224Z,1006.90
2022-11-30T07:15:30.214Z,1006.87
2022-11-30T07:16:30.224Z,1006.90
2022-11-30T07:17:30.212Z,1006.84
2022-11-30T07:18:32.062Z,1006.83
2022-11-30T07:19:30.163Z,1006.77
2022-11-30T07:20:30.148Z,1006.83
2022-11-30T07:21:30.136Z,1006.87
2022-11-30T07:22:30.120Z,1006.83
2022-11-30T07:23:30.124Z,1006.83
2022-11-30T07:24:30.118Z,1006.84
2022-11-30T07:25:30.085Z,1006.84
2022-11-30T07:26:30.070Z,1006.88
2022-11-30T07:27:30.058Z,1006.85
2022-11-30T07:28:30.055Z,1006.89
2022-11-30T07:29:30.032Z,1006.89
2022-11-30T07:30:30.018Z,1006.88
2022-11-30T07:31:30.091Z,1006.87
2022-11-30T07:32:29.993Z,1006.94
2022-11-30T07:33:29.994Z,1006.91
2022-11-30T07:34:29.976Z,1006.91
2022-11-30T07:35:29.952Z,1006.91
2022-11-30T07:36:29.937Z,1006.94
2022-11-30T07:37:29.927Z,1006.84
2022-11-30T07:38:29.925Z,1006.89
2022-11-30T07:39:29.900Z,1006.88
2022-11-30T07:40:29.914Z,1006.89
2022-11-30T07:41:29.878Z,1006.91
2022-11-30T07:42:29.862Z,1006.85
2022-11-30T07:43:29.864Z,1006.88
2022-11-30T07:44:29.836Z,1006.88
2022-11-30T07:45:29.862Z,1006.92
2022-11-30T07:46:29.810Z,1006.84
2022-11-30T07:47:29.799Z,1006.96
2022-11-30T07:48:29.801Z,1006.87
2022-11-30T07:49:29.772Z,1006.91
2022-11-30T07:50:29.761Z,1006.88
2022-11-30T07:51:29.747Z,1006.90
2022-11-30T07:52:29.733Z,1006.91
2022-11-30T07:53:29.736Z,1006.91
2022-11-30T07:54:29.714Z,1006.92
2022-11-30T07:55:29.696Z,1006.90
2022-11-30T07:56:29.705Z,1006.94
2022-11-30T07:57:29.671Z,1006.99
2022-11-30T07:58:30.660Z,1006.94
2022-11-30T07:59:29.650Z,1006.95
2022-11-30T08:00:29.631Z,1007.01
2022-11-30T08:01:29.756Z,1006.99
2022-11-30T08:02:29.678Z,1006.99
2022-11-30T08:03:33.692Z,1007.00
2022-11-30T08:04:30.642Z,1006.99
2022-11-30T08:05:29.572Z,1007.01
2022-11-30T08:06:29.555Z,1007.01
2022-11-30T08:07:29.578Z,1007.00
2022-11-30T08:08:29.543Z,1007.03
2022-11-30T08:09:29.516Z,1007.05
2022-11-30T08:10:29.505Z,1007.08
2022-11-30T08:11:29.497Z,1007.00
2022-11-30T08:12:29.524Z,1007.05
2022-11-30T08:13:29.482Z,1006.96
2022-11-30T08:14:29.451Z,1007.05
2022-11-30T08:15:32.783Z,1007.02
2022-11-30T08:16:29.567Z,1007.05
2022-11-30T08:17:29.418Z,1007.02
2022-11-30T08:18:29.420Z,1007.05
2022-11-30T08:19:29.391Z,1007.12
2022-11-30T08:20:29.375Z,1007.05
2022-11-30T08:21:29.365Z,1007.07
2022-11-30T08:22:29.351Z,1007.03
2022-11-30T08:23:29.372Z,1007.09
2022-11-30T08:24:29.373Z,1007.06
2022-11-30T08:25:29.312Z,1007.08
2022-11-30T08:26:29.298Z,1007.05
2022-11-30T08:27:29.292Z,1007.02
2022-11-30T08:28:29.295Z,1007.13
2022-11-30T08:29:29.279Z,1007.08
2022-11-30T08:30:32.407Z,1007.07
2022-11-30T08:31:29.328Z,1007.12
2022-11-30T08:32:29.230Z,1007.11
2022-11-30T08:33:30.899Z,1007.12
2022-11-30T08:34:29.211Z,1007.06
2022-11-30T08:35:29.186Z,1007.14
2022-11-30T08:36:29.171Z,1007.11
2022-11-30T08:37:29.173Z,1007.16
2022-11-30T08:38:29.147Z,1007.18
2022-11-30T08:39:29.149Z,1007.21
2022-11-30T08:40:29.375Z,1007.21
2022-11-30T08:41:29.110Z,1007.18
2022-11-30T08:42:29.107Z,1007.23
2022-11-30T08:43:29.087Z,1007.20
2022-11-30T08:44:29.105Z,1007.22
2022-11-30T08:45:29.062Z,1007.19
2022-11-30T08:47:29.085Z,1007.25
2022-11-30T08:48:29.019Z,1007.25
2022-11-30T08:49:29.020Z,1007.28
2022-11-30T08:50:28.992Z,1007.24
2022-11-30T08:51:42.125Z,1007.29
2022-11-30T08:52:28.969Z,1007.33
2022-11-30T08:53:28.957Z,1007.31
2022-11-30T08:54:28.961Z,1007.29
2022-11-30T08:55:28.935Z,1007.34
2022-11-30T08:56:28.918Z,1007.30
2022-11-30T08:57:28.909Z,1007.33
2022-11-30T08:58:28.896Z,1007.36
2022-11-30T08:59:28.896Z,1007.36
2022-11-30T09:00:28.924Z,1007.41
2022-11-30T09:01:31.495Z,1007.37
2022-11-30T09:02:28.912Z,1007.42
2022-11-30T09:03:28.845Z,1007.40
2022-11-30T09:04:28.829Z,1007.38
2022-11-30T09:05:28.804Z,1007.37
2022-11-30T09:06:28.793Z,1007.36
2022-11-30T09:07:28.831Z,1007.45
2022-11-30T09:08:28.767Z,1007.39
2022-11-30T09:09:28.774Z,1007.39
2022-11-30T09:10:28.746Z,1007.48
2022-11-30T09:11:28.731Z,1007.45
2022-11-30T09:12:28.716Z,1007.48
2022-11-30T09:13:28.710Z,1007.48
2022-11-30T09:14:28.713Z,1007.50
2022-11-30T09:15:28.677Z,1007.53
2022-11-30T09:16:28.683Z,1007.53
2022-11-30T09:17:28.657Z,1007.51
2022-11-30T09:18:28.651Z,1007.50
2022-11-30T09:19:28.644Z,1007.48
2022-11-30T09:20:28.613Z,1007.48
2022-11-30T09:21:28.601Z,1007.54
2022-11-30T09:22:28.593Z,1007.50
2022-11-30T09:23:28.577Z,1007.51
2022-11-30T09:24:28.578Z,1007.55
2022-11-30T09:25:28.551Z,1007.41
2022-11-30T09:26:28.538Z,1007.48
2022-11-30T09:27:28.526Z,1007.43
2022-11-30T09:28:28.529Z,1007.46
2022-11-30T09:29:28.514Z,1007.50
2022-11-30T09:30:28.538Z,1007.45
2022-11-30T09:31:28.473Z,1007.47
2022-11-30T09:32:28.530Z,1007.48
2022-11-30T09:33:28.451Z,1007.46
2022-11-30T09:34:28.450Z,1007.51
2022-11-30T09:35:28.424Z,1007.43
2022-11-30T09:36:28.411Z,1007.50
2022-11-30T09:37:28.398Z,1007.50
2022-11-30T09:38:28.384Z,1007.49
2022-11-30T09:39:28.389Z,1007.53
2022-11-30T09:40:33.932Z,1007.51
2022-11-30T09:41:28.348Z,1007.52
2022-11-30T09:42:28.331Z,1007.53
2022-11-30T09:43:28.319Z,1007.56
2022-11-30T09:44:28.332Z,1007.53
2022-11-30T09:45:28.297Z,1007.57
2022-11-30T09:46:28.368Z,1007.55
2022-11-30T09:47:31.852Z,1007.56
2022-11-30T09:48:28.276Z,1007.55
2022-11-30T09:49:28.263Z,1007.57
2022-11-30T09:50:28.226Z,1007.53
2022-11-30T09:51:28.221Z,1007.55
2022-11-30T09:52:28.204Z,1007.50
2022-11-30T09:53:29.891Z,1007.54
2022-11-30T09:54:28.176Z,1007.54
2022-11-30T09:55:28.184Z,1007.51
2022-11-30T09:56:28.153Z,1007.56
2022-11-30T09:57:28.139Z,1007.51
2022-11-30T09:58:28.130Z,1007.54
2022-11-30T09:59:28.113Z,1007.46
2022-11-30T10:00:28.114Z,1007.52
2022-11-30T10:01:31.993Z,1007.58
2022-11-30T10:02:28.347Z,1007.55
2022-11-30T10:03:28.146Z,1007.55
2022-11-30T10:04:28.074Z,1007.49
2022-11-30T10:05:28.075Z,1007.53
2022-11-30T10:06:28.025Z,1007.54
2022-11-30T10:07:28.058Z,1007.54
2022-11-30T10:08:28.003Z,1007.59
2022-11-30T10:09:27.999Z,1007.55
2022-11-30T10:10:32.980Z,1007.55
2022-11-30T10:11:28.961Z,1007.56
2022-11-30T10:12:27.948Z,1007.54
2022-11-30T10:13:27.945Z,1007.48
2022-11-30T10:14:27.920Z,1007.49
2022-11-30T10:15:27.926Z,1007.50
2022-11-30T10:16:27.965Z,1007.49
2022-11-30T10:17:27.886Z,1007.51
2022-11-30T10:18:27.875Z,1007.47
2022-11-30T10:19:27.860Z,1007.47
2022-11-30T10:20:28.009Z,1007.44
2022-11-30T10:21:27.834Z,1007.43
2022-11-30T10:22:27.820Z,1007.43
2022-11-30T10:23:27.807Z,1007.45
2022-11-30T10:24:27.795Z,1007.45
2022-11-30T10:25:27.795Z,1007.48
2022-11-30T10:26:27.767Z,1007.48
2022-11-30T10:27:27.756Z,1007.51
2022-11-30T10:28:57.307Z,1007.51
2022-11-30T10:29:28.736Z,1007.50
2022-11-30T10:30:27.732Z,1007.50
2022-11-30T10:31:27.746Z,1007.52
2022-11-30T10:32:27.691Z,1007.55
2022-11-30T10:33:27.681Z,1007.49
2022-11-30T10:34:27.669Z,1007.50
2022-11-30T10:35:27.679Z,1007.48
2022-11-30T10:36:27.682Z,1007.47
2022-11-30T10:37:27.638Z,1007.49
2022-11-30T10:38:27.617Z,1007.45
2022-11-30T10:39:27.609Z,1007.50
2022-11-30T10:40:27.605Z,1007.48
2022-11-30T10:41:27.582Z,1007.46
2022-11-30T10:42:27.569Z,1007.42
2022-11-30T10:43:27.555Z,1007.47
2022-11-30T10:44:27.540Z,1007.41
2022-11-30T10:45:27.544Z,1007.36
2022-11-30T10:46:27.587Z,1007.33
2022-11-30T10:47:27.509Z,1007.33
2022-11-30T10:48:27.489Z,1007.28
2022-11-30T10:49:27.485Z,1007.35
2022-11-30T10:50:27.460Z,1007.28
2022-11-30T10:51:27.463Z,1007.31
2022-11-30T10:52:27.461Z,1007.32
2022-11-30T10:53:27.426Z,1007.27
2022-11-30T10:54:27.411Z,1007.33
2022-11-30T10:55:27.397Z,1007.32
2022-11-30T10:56:27.396Z,1007.27
2022-11-30T10:57:27.373Z,1007.26
2022-11-30T10:58:27.370Z,1007.29
2022-11-30T10:59:27.351Z,1007.23
2022-11-30T11:00:27.327Z,1007.25
2022-11-30T11:01:27.367Z,1007.21
2022-11-30T11:02:27.344Z,1007.24
2022-11-30T11:03:27.293Z,1007.21
2022-11-30T11:04:27.400Z,1007.16
2022-11-30T11:05:27.262Z,1007.15
2022-11-30T11:06:27.263Z,1007.14
2022-11-30T11:07:27.347Z,1007.13
2022-11-30T11:08:27.242Z,1007.14
2022-11-30T11:09:27.211Z,1007.07
2022-11-30T11:10:27.200Z,1007.11
2022-11-30T11:11:27.203Z,1007.11
2022-11-30T11:12:27.171Z,1007.20
2022-11-30T11:13:27.157Z,1007.27
2022-11-30T11:14:27.145Z,1007.29
2022-11-30T11:15:27.127Z,1007.27
2022-11-30T11:16:27.159Z,1007.25
2022-11-30T11:17:27.107Z,1007.20
2022-11-30T11:18:27.088Z,1007.26
2022-11-30T11:19:27.077Z,1007.23
2022-11-30T11:20:27.069Z,1007.23
2022-11-30T11:21:27.063Z,1007.20
2022-11-30T11:22:27.033Z,1007.20
2022-11-30T11:23:27.021Z,1007.14
2022-11-30T11:24:27.030Z,1007.21
2022-11-30T11:25:26.996Z,1007.22
2022-11-30T11:26:27.005Z,1007.16
2022-11-30T11:27:26.972Z,1007.17
2022-11-30T11:28:26.958Z,1007.12
2022-11-30T11:29:26.944Z,1007.14
2022-11-30T11:30:26.935Z,1007.07
2022-11-30T11:31:26.988Z,1007.10
2022-11-30T11:32:26.902Z,1007.13
2022-11-30T11:33:26.911Z,1007.09
2022-11-30T11:34:26.875Z,1007.09
2022-11-30T11:35:26.863Z,1007.13
2022-11-30T11:36:26.864Z,1007.02
2022-11-30T11:37:26.833Z,1007.07
2022-11-30T11:38:26.825Z,1007.02
2022-11-30T11:39:26.811Z,1007.03
2022-11-30T11:40:26.823Z,1007.04
2022-11-30T11:41:26.826Z,1007.08
2022-11-30T11:42:26.770Z,1007.01
2022-11-30T11:43:26.758Z,1007.05
2022-11-30T11:44:26.745Z,1007.07
2022-11-30T11:45:26.728Z,1007.03
2022-11-30T11:46:26.810Z,1006.99
2022-11-30T11:47:26.706Z,1007.02
2022-11-30T11:48:29.251Z,1007.01
2022-11-30T11:49:26.685Z,1007.03
2022-11-30T11:51:04.568Z,1007.01
2022-11-30T11:51:27.669Z,1007.02
2022-11-30T11:52:26.643Z,1007.04
2022-11-30T11:53:26.661Z,1007.01
2022-11-30T11:54:26.615Z,1007.05
2022-11-30T11:55:26.600Z,1007.02
2022-11-30T11:56:26.621Z,1007.07
2022-11-30T11:57:26.575Z,1007.11
2022-11-30T11:58:26.565Z,1007.03
2022-11-30T11:59:32.190Z,1007.07
2022-11-30T12:00:26.539Z,1007.06
2022-11-30T12:01:41.908Z,1007.05
2022-11-30T12:02:27.602Z,1007.03
2022-11-30T12:03:26.501Z,1007.03
2022-11-30T12:04:26.580Z,1007.05
2022-11-30T12:05:26.472Z,1007.06
2022-11-30T12:06:26.460Z,1007.11